Weather observations for the past three days for
Elk City Regional Business Airport
Imperial (Metric)
Date Time (cdt) Wind (mph) Vis. (mi.) Weather Sky Cond. Temperature (ºF) Relative Humidity Wind Chill (°F) Heat Index (°F) Pressure Precipitation (in)
Air Dwpt 6 hour altimeter (in) sea level (mb) 1 hr 3 hr 6 hr
Max. Min.
06 04:15 NE 15 10.00 Overcast FEW027 OVC037 48 41.2 77% 43 29.97 0.0
06 03:55 NE 13 10.00 Overcast FEW028 OVC036 48 41.2 77% 43 29.94 0.0
06 03:35 NE 13 10.00 Overcast FEW029 OVC036 48.2 41 76% 43 29.95 0.0
06 03:15 NE 12 G 18 10.00 Overcast OVC036 48 39.6 73% 44 29.94 0.0
06 02:55 NE 13 10.00 Overcast OVC035 47.8 39.6 73% 43 29.94 0.0
06 02:35 NE 16 10.00 Overcast OVC034 48 39.9 74% 42 29.93 0.0
06 02:15 NE 13 10.00 Overcast OVC034 48.2 39.2 71% 43 29.93 0.0
06 01:55 NE 12 10.00 Overcast OVC032 48.2 38.3 69% 44 29.94 0.0
06 01:35 NE 15 10.00 Overcast OVC031 48 37.6 67% 43 29.92 0.0
06 00:55 NE 13 10.00 Overcast OVC030 48.2 39.4 53.8 48.2 72% 43 29.91 0.0
06 00:35 E 15 10.00 Overcast OVC029 48.2 40.3 74% 43 29.91 0.0
06 00:15 E 15 10.00 Overcast OVC028 48.2 41.9 79% 43 29.91 0.0
05 23:55 NE 16 10.00 Overcast BKN021 OVC027 48.2 42.8 82% 43 29.9 0.0
05 23:35 NE 18 G 24 10.00 Overcast OVC021 48.4 43.2 82% 42 29.91 0.0
05 23:15 NE 18 10.00 Overcast OVC022 48.6 42.6 80% 43 29.91 0.0
05 22:55 NE 18 G 26 10.00 Overcast OVC024 48.9 42.3 78% 43 29.91 0.0
05 22:35 NE 15 10.00 Overcast OVC022 49.3 43.7 81% 44 29.9 0.0
05 22:15 NE 17 10.00 Overcast OVC024 49.3 43.7 81% 44 29.88 0.0
05 21:55 NE 10 10.00 Partly Cloudy SCT023 48.2 43.7 85% 44 29.87 0.0
05 21:35 NE 15 10.00 A Few Clouds FEW024 48.7 43.3 82% 44 29.86 0.0
05 21:15 NE 21 G 26 10.00 Fair and Breezy CLR 49.3 43 79% 43 29.84 0.0
05 20:55 NE 17 10.00 Fair CLR 49.8 42.6 76% 44 29.84 0.0
05 20:35 NE 21 G 26 10.00 Partly Cloudy and Breezy SCT036 50.2 43 76% 29.83 0.0
05 20:15 NE 17 G 26 10.00 Mostly Cloudy BKN035 50.9 43 74% 29.82 0.0
05 19:55 NE 20 G 23 10.00 Overcast OVC034 52 42.4 70% 29.82 0.0
05 19:35 NE 15 10.00 Overcast OVC033 52.5 42.4 69% 29.83 0.0
05 19:15 NE 16 10.00 Overcast OVC032 53.4 42.3 66% 29.84 0.0
05 18:55 NE 13 10.00 Overcast OVC031 54 43.3 59.2 54 67% 29.84 0.0
05 18:35 NE 14 10.00 Overcast OVC031 54.5 44.2 68% 29.84 0.0
05 18:15 NE 17 10.00 Overcast OVC032 54.5 43.9 68% 29.83 0.0
05 17:55 NE 15 G 23 10.00 Overcast OVC035 56.3 43.9 63% 29.82 0.0
05 17:35 NE 20 G 26 10.00 Overcast OVC034 56.5 43.9 63% 29.8 0.0
05 17:15 NE 14 10.00 Overcast OVC032 56.7 44.2 63% 29.81 0.0
05 16:55 NE 15 10.00 Overcast OVC034 57 44.8 64% 29.81 0.0
05 16:35 NE 16 10.00 Overcast OVC034 57.6 45.1 63% 29.82 0.0
05 16:15 NE 12 10.00 Overcast OVC032 57.2 45.5 65% 29.82 0.0
05 15:55 NE 18 G 23 10.00 Overcast OVC030 57.4 45.5 65% 29.81 0.0
05 15:35 NE 15 G 29 10.00 Overcast OVC029 57.7 45.7 64% 29.81 0.0
05 15:15 NE 20 G 24 10.00 Overcast OVC028 58.6 46.6 64% 29.8 0.0
05 14:55 NE 21 G 29 10.00 Overcast and Breezy OVC025 57.2 46.4 67% 29.8 0.0
05 14:35 N 21 G 26 10.00 Overcast and Breezy OVC024 56.3 46.6 70% 29.8 0.0
05 14:15 NE 17 G 26 10.00 Overcast OVC024 56.1 46.8 71% 29.8 0.0
05 13:55 NE 20 G 26 10.00 Overcast OVC023 56.8 46.6 69% 29.79 0.0
05 13:35 NE 18 10.00 Overcast OVC023 55.9 46.9 72% 29.8 0.0
05 13:15 NE 22 G 26 10.00 Overcast and Breezy OVC022 55 46.8 74% 29.81 0.0
05 12:55 N 18 G 24 10.00 Overcast OVC021 55.6 47.3 63.5 54.7 74% 29.81 0.0
05 12:35 NE 22 G 28 10.00 Overcast and Breezy OVC021 55.4 47.3 74% 29.81 0.0
05 12:15 N 18 G 31 10.00 Overcast OVC020 55 47.3 75% 29.8 0.0
05 11:55 N 24 G 30 10.00 Overcast and Breezy OVC023 55.8 46.8 72% 29.79 0.0
05 11:35 NE 21 G 28 10.00 Overcast and Breezy OVC023 56.3 46.8 71% 29.78 0.0
05 11:15 NE 23 G 31 10.00 Overcast and Breezy OVC025 56.7 45.9 67% 29.76 0.0
05 10:55 NE 22 G 28 10.00 Overcast and Breezy OVC024 57.2 45.9 66% 29.75 0.0
05 10:35 N 18 G 28 10.00 Overcast OVC021 57.2 45.3 65% 29.74 0.0
05 10:15 N 22 G 26 10.00 Overcast and Breezy OVC020 57.4 46 66% 29.73 0.0
05 09:55 N 22 G 29 10.00 Overcast and Breezy OVC019 57 46.2 67% 29.72 0.0
05 09:35 N 22 G 30 10.00 Overcast and Breezy OVC019 56.3 46.2 69% 29.7 0.0
05 09:15 N 21 G 28 10.00 Overcast and Breezy OVC019 56.8 47.1 70% 29.7 0.0
05 08:55 N 23 G 33 9.00 Overcast and Breezy OVC018 56.7 48.9 75% 29.68 0.0
05 08:35 N 25 G 33 10.00 Overcast and Breezy OVC017 57 49.8 77% 29.66 0.0
05 08:15 N 23 G 31 10.00 Overcast and Breezy OVC017 57.9 52.5 82% 29.65 0.0
05 07:55 N 20 10.00 Overcast OVC016 59.7 55.2 85% 29.64 0.0
05 07:35 N 23 G 30 10.00 Overcast and Breezy OVC015 61 56.5 85% 29.63 0.0
05 07:15 N 20 G 30 9.00 Overcast BKN010 OVC015 63 59.5 89% 29.61 0.0
05 06:55 N 17 10.00 Partly Cloudy SCT010 61.9 56.7 73 61 83% 29.59 0.0
05 06:35 N 16 10.00 Fair CLR 61.2 50.5 68% 29.58 0.0
05 06:15 N 13 10.00 A Few Clouds FEW210 62.8 38.7 41% 29.57 0.0
05 05:55 N 3 10.00 Fair CLR 64.9 30.7 28% 29.54 0.0
05 05:35 N 5 10.00 Fair CLR 65.3 30.9 28% 29.53 0.0
05 05:15 W 7 10.00 Fair CLR 68.2 30.2 24% 29.52 0.0
05 04:55 W 10 10.00 Fair CLR 71.2 30.6 22% 29.5 0.0
05 04:35 W 10 10.00 Fair CLR 72.5 30.4 21% 29.49 0.0
05 04:15 SW 12 10.00 Fair CLR 72.5 30.6 21% 29.49 0.0
05 03:55 SW 12 10.00 Fair CLR 72.5 31.5 22% 29.49 0.0
05 03:35 SW 9 10.00 Fair CLR 71.4 32.2 24% 29.49 0.0
05 03:15 SW 8 10.00 Fair CLR 69.3 34.2 27% 29.5 0.0
05 02:55 S 8 10.00 Partly Cloudy SCT250 64.6 39 39% 29.5 0.0
05 02:35 S 8 10.00 Partly Cloudy SCT240 64.8 39.4 39% 29.52 0.0
05 02:15 S 10 10.00 Partly Cloudy SCT250 66.4 38.3 36% 29.52 0.0
05 01:55 S 9 9.00 Light Rain SCT250 68 38.7 34% 29.52 0.0
05 01:35 S 9 10.00 Partly Cloudy SCT250 69.8 38.3 32% 29.53 0.0
05 01:15 S 10 10.00 A Few Clouds FEW250 70.3 38.3 31% 29.53 0.0
05 00:55 S 10 10.00 Mostly Cloudy BKN250 70.9 39.4 90.1 70.9 32% 29.54 0.0
05 00:35 SW 12 10.00 Overcast OVC250 73.4 39.4 29% 29.54 0.0
05 00:15 SW 12 10.00 Mostly Cloudy BKN260 74.3 41.4 31% 29.53 0.0
04 23:55 SW 14 10.00 Partly Cloudy SCT250 76.1 47.5 36% 78 29.54 0.0
04 23:35 SW 14 10.00 Mostly Cloudy BKN250 77 50.7 40% 78 29.54 0.0
04 23:15 S 13 10.00 A Few Clouds FEW140 77.7 48.6 36% 78 29.54 0.0
04 22:55 S 15 10.00 Mostly Cloudy BKN140 80.6 46.2 30% 80 29.54 0.0
04 22:35 S 17 G 23 10.00 Mostly Cloudy BKN140 81.1 46.4 30% 80 29.54 0.0
04 22:15 S 12 10.00 A Few Clouds FEW150 80.1 44.1 28% 79 29.54 0.0
04 21:55 SW 10 10.00 Mostly Cloudy BKN140 BKN160 82 39.2 22% 80 29.53 0.0
04 21:35 SW 13 10.00 Mostly Cloudy BKN140 83.1 33.8 17% 81 29.53 0.0
04 21:15 SW 13 8.00 Partly Cloudy SCT150 83.5 32.9 16% 81 29.53 0.0
04 20:55 SW 10 8.00 A Few Clouds FEW140 83.7 35.6 18% 81 29.52 0.0
04 20:35 SW 12 7.00 Partly Cloudy SCT140 85.3 35.6 17% 82 29.51 0.0
04 20:15 SW 13 G 29 7.00 Mostly Cloudy BKN130 87.3 34 15% 84 29.51 0.0
04 19:55 SW 14 7.00 A Few Clouds FEW130 88 34.5 15% 84 29.51 0.0
04 19:35 SW 18 G 26 5.00 A Few Clouds with Haze FEW130 88.9 35.4 15% 85 29.51 0.0
04 19:15 SW 15 G 21 5.00 A Few Clouds with Haze FEW140 89.4 34 14% 85 29.52 0.0
04 18:55 W 13 4.00 Partly Cloudy with Haze SCT140 90.3 32.5 91.8 77 13% 86 29.52 0.0
04 18:35 SW 10 7.00 Partly Cloudy SCT140 90.5 33.6 13% 86 29.52 0.0
04 18:15 W 20 G 25 8.00 A Few Clouds FEW140 91 30.9 12% 87 29.53 0.0
04 17:55 SW 18 G 29 8.00 Mostly Cloudy BKN140 91.2 31.5 12% 87 29.53 0.0
04 17:35 SW 16 G 22 7.00 Mostly Cloudy BKN140 91 34.2 13% 87 29.53 0.0
04 17:15 W 14 G 21 8.00 A Few Clouds FEW140 91.4 33.6 13% 87 29.54 0.0
04 16:55 W 13 G 20 8.00 Partly Cloudy SCT140 91.8 35.1 13% 87 29.55 0.0
04 16:35 W 14 8.00 Mostly Cloudy BKN140 BKN160 91.6 32.2 12% 87 29.55 0.0
04 16:15 SW 5 G 16 8.00 Mostly Cloudy BKN140 90.3 35.8 14% 86 29.56 0.0
04 15:55 S 13 8.00 Partly Cloudy SCT150 SCT280 90.3 38.1 16% 86 29.58 0.0
04 15:35 S 14 8.00 A Few Clouds FEW310 91 40.8 17% 87 29.59 0.0
04 15:15 S 14 7.00 A Few Clouds FEW310 90.1 41.7 18% 86 29.6 0.0
04 14:55 SW 15 G 22 8.00 Partly Cloudy FEW290 SCT360 88.5 44.4 22% 85 29.62 0.0
04 14:35 S 14 8.00 Partly Cloudy FEW260 SCT290 SCT320 SCT350 88 44.6 22% 85 29.63 0.0
04 14:15 SW 15 8.00 Partly Cloudy SCT300 SCT320 SCT350 87.3 46 24% 84 29.64 0.0
04 13:55 SW 12 G 22 9.00 Partly Cloudy FEW290 SCT360 85.3 45.5 25% 83 29.66 0.0
04 13:35 SW 15 9.00 Partly Cloudy FEW280 SCT310 SCT370 84.9 47.5 27% 82 29.66 0.0
04 13:15 SW 15 8.00 Partly Cloudy FEW260 SCT280 SCT350 83.1 48 29% 81 29.67 0.0
04 12:55 S 18 9.00 Partly Cloudy SCT260 SCT340 80.6 48.9 80.6 57 33% 80 29.68 0.0
04 12:35 SW 17 9.00 Partly Cloudy FEW260 SCT300 SCT350 SCT380 79.9 48.7 34% 79 29.69 0.0
04 12:15 S 20 9.00 Partly Cloudy FEW290 SCT350 SCT370 78.4 49.8 37% 79 29.69 0.0
04 11:55 S 17 9.00 A Few Clouds FEW320 76.3 49.3 39% 78 29.7 0.0
04 11:35 S 16 9.00 Partly Cloudy FEW250 SCT370 75.2 50 41% 78 29.71 0.0
04 11:15 S 18 9.00 A Few Clouds FEW240 72.9 48.7 43% 29.71 0.0
04 10:55 S 18 9.00 Fair CLR 71.8 49.1 45% 29.71 0.0
04 10:35 SW 21 9.00 A Few Clouds and Breezy FEW350 70.7 48.4 45% 29.71 0.0
04 10:15 SW 20 9.00 Fair CLR 70.7 48.9 46% 29.71 0.0
04 09:55 SW 18 9.00 Fair CLR 68.2 48.4 49% 29.72 0.0
04 09:35 S 16 9.00 Fair CLR 66.9 48.2 51% 29.73 0.0
04 09:15 S 21 9.00 Fair and Breezy CLR 64.8 47.3 53% 29.73 0.0
04 08:55 S 16 9.00 Fair CLR 63 47.3 57% 29.73 0.0
04 08:35 S 14 9.00 Fair CLR 61.7 46.9 59% 29.73 0.0
04 08:15 S 15 9.00 Fair CLR 60.4 46.4 60% 29.73 0.0
04 07:55 S 15 8.00 Fair CLR 59.9 46 60% 29.73 0.0
04 07:35 S 13 8.00 Fair CLR 58.8 46.2 63% 29.73 0.0
04 07:15 S 13 8.00 Fair CLR 57.9 45.9 64% 29.73 0.0
04 06:55 S 14 8.00 Fair CLR 56.8 45.5 65.7 56.3 66% 29.73 0.0
04 06:35 S 15 9.00 Fair CLR 56.8 45.1 65% 29.73 0.0
04 06:15 S 15 9.00 Fair CLR 57.2 45 64% 29.73 0.0
04 05:55 S 14 9.00 Fair CLR 56.8 45 65% 29.74 0.0
04 05:35 S 13 10.00 Fair CLR 57.4 45 63% 29.74 0.0
04 05:15 S 12 9.00 Fair CLR 57 45.3 65% 29.76 0.0
04 04:55 S 13 9.00 Fair CLR 57.6 45 63% 29.77 0.0
04 04:35 S 12 10.00 Fair CLR 56.5 45.1 66% 29.77 0.0
04 04:15 S 10 9.00 Fair CLR 56.7 44.6 64% 29.77 0.0
04 03:55 S 12 9.00 Fair CLR 57.2 44.2 62% 29.77 0.0
04 03:35 S 10 9.00 Fair CLR 57.6 43.7 60% 29.78 0.0
04 03:15 S 10 10.00 Fair CLR 58.6 43.2 57% 29.79 0.0
04 02:55 S 10 9.00 Fair CLR 59 43 56% 29.79 0.0
04 02:35 S 12 9.00 Fair CLR 59.5 42.8 54% 29.81 0.0
04 02:15 S 10 9.00 Fair CLR 61.7 42.3 49% 29.82 0.0
04 01:55 S 14 9.00 Fair CLR 63.3 42.1 46% 29.82 0.0
04 01:35 S 14 9.00 Fair CLR 64.4 41.9 44% 29.83 0.0
04 01:15 S 16 9.00 Fair CLR 65.1 41.7 43% 29.83 0.0
04 00:55 S 17 9.00 Fair CLR 65.8 41.5 80.8 65.8 41% 29.84 0.0
04 00:35 S 17 9.00 Fair CLR 66.4 41.5 41% 29.84 0.0
04 00:15 S 18 9.00 Fair CLR 66.6 41.2 40% 29.84 0.0
03 23:55 S 16 9.00 Fair CLR 67.1 40.6 38% 29.85 0.0
03 23:35 S 15 9.00 Fair CLR 67.1 40.6 38% 29.85 0.0
03 23:15 S 14 9.00 Fair CLR 67.8 39.9 36% 29.85 0.0
03 22:55 S 12 9.00 Fair CLR 68.7 39.4 34% 29.86 0.0
03 22:35 S 14 9.00 Fair CLR 69.6 39.2 33% 29.86 0.0
03 22:15 S 14 9.00 Fair CLR 69.6 38.5 32% 29.85 0.0
03 21:55 S 9 9.00 Fair CLR 68.5 36 30% 29.85 0.0
03 21:35 S 12 8.00 Fair CLR 70.5 36 28% 29.85 0.0
03 21:15 S 13 9.00 Fair CLR 71.8 35.6 27% 29.84 0.0
03 20:55 S 13 7.00 Fair CLR 73.6 35.4 25% 29.84 0.0
03 20:35 S 15 7.00 Fair CLR 74.8 35.4 24% 29.84 0.0
03 20:15 S 14 6.00 Fair with Haze CLR 75.9 34.9 22% 77 29.84 0.0
03 19:55 S 17 G 28 7.00 Fair CLR 77.9 34.3 21% 77 29.84 0.0
03 19:35 S 17 G 24 8.00 Fair CLR 79.2 35.2 20% 78 29.84 0.0
03 19:15 S 20 8.00 Fair CLR 80.4 34.3 19% 79 29.84 0.0
03 18:55 S 22 G 26 8.00 Fair and Breezy CLR 79.9 34 82.6 78.8 19% 78 29.85 0.0
03 18:35 S 18 G 26 9.00 Fair CLR 81.1 34.9 19% 79 29.85 0.0
03 18:15 SW 24 G 30 8.00 Fair and Breezy CLR 81.9 34.5 18% 80 29.85 0.0
03 17:55 SW 16 8.00 Fair CLR 81 34 18% 79 29.87 0.0
03 17:35 SW 18 G 25 9.00 Fair CLR 81.3 34.9 19% 79 29.87 0.0
03 17:15 SW 16 G 30 9.00 Fair CLR 81.5 35.1 19% 79 29.88 0.0
03 16:55 SW 18 G 26 9.00 Fair CLR 82.2 33.8 17% 80 29.89 0.0
03 16:35 S 24 G 30 9.00 Fair and Breezy CLR 82.4 34.3 18% 80 29.9 0.0
03 16:15 S 23 G 31 9.00 Fair and Breezy CLR 81.9 34 18% 80 29.91 0.0
03 15:55 SW 20 G 31 8.00 Fair CLR 82 34.9 18% 80 29.93 0.0
03 15:35 SW 24 G 31 9.00 Fair and Breezy CLR 81.7 34.7 18% 80 29.93 0.0
03 15:15 SW 23 G 31 8.00 Fair and Breezy CLR 81.5 33.6 18% 79 29.94 0.0
03 14:55 SW 20 G 30 9.00 Fair CLR 81.9 35.8 19% 80 29.96 0.0
03 13:55 SW 16 G 25 8.00 Fair CLR 81 35.8 20% 79 29.98 0.0
03 13:35 SW 21 G 30 9.00 A Few Clouds and Breezy FEW360 79.7 33.8 19% 78 29.99 0.0
03 13:15 W 17 G 29 9.00 Fair CLR 79.5 35.1 20% 78 30.01 0.0
03 12:55 S 18 G 24 9.00 Fair CLR 78.4 36.3 79 51.1 22% 78 30.03 0.0
03 12:35 SW 20 G 28 9.00 Fair CLR 78.6 35.2 21% 78 30.04 0.0
03 12:15 SW 20 G 26 9.00 Fair CLR 78.1 33.8 20% 77 30.04 0.0
03 11:55 SW 15 G 25 9.00 Fair CLR 77.5 36 22% 77 30.05 0.0
03 11:35 SW 14 G 21 9.00 Fair CLR 76.6 39.9 27% 77 30.06 0.0
03 11:15 SW 16 9.00 Fair CLR 75.2 40.6 29% 77 30.06 0.0
03 10:55 SW 15 9.00 Fair CLR 73.2 41.9 32% 30.06 0.0
03 10:35 SW 16 9.00 Fair CLR 71.4 41.4 34% 30.07 0.0
03 10:15 W 13 9.00 Fair CLR 70.7 41.4 35% 30.07 0.0
03 09:55 W 12 9.00 Fair CLR 67.6 40.8 38% 30.07 0.0
03 09:35 SW 9 9.00 Fair CLR 66.9 41.2 39% 30.07 0.0
03 09:15 W 7 9.00 Fair CLR 66.2 40.8 40% 30.07 0.0
03 08:55 SW 6 10.00 Fair CLR 63.7 40.5 43% 30.06 0.0
03 08:35 SW 7 10.00 Fair CLR 62.4 40.5 45% 30.06 0.0
03 08:15 W 7 9.00 Fair CLR 60.8 40.6 48% 30.05 0.0
03 07:55 W 6 9.00 Fair CLR 56.1 39 53% 30.04 0.0
03 07:35 W 6 9.00 Fair CLR 53.8 37.2 54% 30.04 0.0
03 07:15 W 6 8.00 Fair CLR 51.6 34.9 53% 30.04 0.0
03 06:55 W 5 10.00 Fair CLR 49.3 38.1 55.8 46.8 66% 48 30.04 0.0
03 06:35 Calm 9.00 Fair CLR 48.6 39.6 71% 30.04 0.0
03 06:15 SW 5 10.00 Fair CLR 49.1 40.3 72% 48 30.03 0.0
03 05:55 S 5 10.00 Fair CLR 49.5 41.7 75% 48 30.03 0.0
03 05:35 S 6 10.00 Fair CLR 48 41.7 79% 46 30.03 0.0
03 05:15 S 7 10.00 Fair CLR 48.2 42.3 80% 46 30.03 0.0
03 04:55 S 6 10.00 Fair CLR 48.6 42.4 80% 47 30.03 0.0
03 04:35 S 7 10.00 Fair CLR 48.9 42.6 79% 46 30.04 0.0
Date Time (cdt) Wind (mph) Vis. (mi.) Weather Sky Cond. Air Dwpt Max. Min. Relative Humidity Wind Chill (°F) Heat Index (°F) altimeter (in) sea level (mb) 1 hr 3 hr 6 hr
6 hour
Temperature (ºF) Pressure Precipitation (in)